Time;durP1;ratioP1;P1;durP2;ratioP2;P2;SDS_P1;SDS_P2;PMS_P1;PMS_P2;Temp;Humidity;BMP_temperature;BMP_pressure;BME280_temperature;BME280_humidity;BME280_pressure;Samples;Min_cycle;Max_cycle;Signal;HPM_P1;HPM_P2
2020/12/05 00:02:51;;;;;;;32.90;13.55;;;;;;;5.17;74.54;97931.33;2220663;80;21284;-62
2020/12/05 00:05:53;;;;;;;30.88;12.37;;;;;;;5.20;74.45;97932.45;2220870;80;21257;-62
2020/12/05 00:08:54;;;;;;;32.33;13.28;;;;;;;5.20;74.32;97932.45;2221215;80;21276;-62
2020/12/05 00:11:56;;;;;;;34.13;12.95;;;;;;;5.18;74.30;97934.75;2192246;80;21760;-61
2020/12/05 00:14:57;;;;;;;34.78;13.28;;;;;;;5.14;74.32;97937.13;2220806;80;21284;-61
2020/12/05 00:17:58;;;;;;;34.83;13.58;;;;;;;5.13;74.32;97932.84;2220767;80;21304;-61
2020/12/05 00:21:00;;;;;;;33.38;13.90;;;;;;;5.13;74.31;97944.11;2220389;80;21281;-61
2020/12/05 00:24:01;;;;;;;33.35;13.88;;;;;;;5.13;74.30;97945.41;2220300;80;21150;-61
2020/12/05 00:27:02;;;;;;;35.98;13.55;;;;;;;5.12;74.39;97949.39;2191468;80;21252;-61
2020/12/05 00:30:04;;;;;;;36.42;13.75;;;;;;;5.10;74.45;97949.47;2192114;80;21721;-61
2020/12/05 00:33:05;;;;;;;33.42;13.25;;;;;;;5.09;74.49;97945.66;2220320;80;21162;-61
2020/12/05 00:36:06;;;;;;;32.38;12.45;;;;;;;5.08;74.60;97940.89;2220825;80;21329;-61
2020/12/05 00:39:09;;;;;;;33.58;13.43;;;;;;;5.10;74.54;97953.37;2220377;80;21139;-61
2020/12/05 00:42:10;;;;;;;33.58;13.62;;;;;;;5.10;74.58;97954.67;2220555;80;21276;-61
2020/12/05 00:45:11;;;;;;;36.95;14.23;;;;;;;5.10;74.56;97957.27;2220263;80;21285;-61
2020/12/05 00:48:13;;;;;;;34.18;13.95;;;;;;;5.09;74.55;97967.75;2220795;80;21696;-62
2020/12/05 00:51:14;;;;;;;32.70;13.93;;;;;;;5.07;74.68;97974.33;2220261;80;21593;-62
2020/12/05 00:54:15;;;;;;;33.13;13.75;;;;;;;5.04;74.70;97974.46;2220278;80;21154;-62
2020/12/05 00:57:16;;;;;;;31.55;13.13;;;;;;;5.02;74.71;97966.75;2220773;80;21269;-61
2020/12/05 01:00:18;;;;;;;32.42;13.62;;;;;;;4.99;74.73;97962.19;2220187;80;21276;-61
2020/12/05 01:03:19;;;;;;;33.02;13.78;;;;;;;5.00;74.76;97976.40;2220854;80;21690;-62
2020/12/05 01:06:21;;;;;;;32.25;13.15;;;;;;;5.01;74.81;97968.98;2220757;80;21344;-62
2020/12/05 01:09:22;;;;;;;33.33;14.20;;;;;;;5.02;74.83;97966.75;2220533;80;21601;-61
2020/12/05 01:12:24;;;;;;;33.02;14.20;;;;;;;5.01;74.83;97970.73;2220267;80;21146;-61
2020/12/05 01:15:25;;;;;;;35.30;14.78;;;;;;;4.99;74.90;97979.08;2220889;80;21296;-62
2020/12/05 01:18:26;;;;;;;32.78;12.28;;;;;;;4.98;74.90;97983.89;2220213;80;21147;-61
2020/12/05 01:21:28;;;;;;;33.55;12.88;;;;;;;4.95;74.96;97985.34;2220625;80;21545;-62
2020/12/05 01:24:29;;;;;;;34.18;13.05;;;;;;;4.94;74.91;97975.86;2220382;80;21138;-61
2020/12/05 01:27:30;;;;;;;32.25;13.32;;;;;;;4.95;74.99;97981.45;2220711;80;21284;-61
2020/12/05 01:30:31;;;;;;;31.15;12.88;;;;;;;4.99;75.12;97975.18;2220207;80;21151;-60
2020/12/05 01:33:33;;;;;;;34.95;14.20;;;;;;;5.02;75.03;97972.42;2220319;80;21566;-61
2020/12/05 01:36:34;;;;;;;31.10;12.53;;;;;;;5.05;75.12;97980.05;2220767;80;21277;-62
2020/12/05 01:39:35;;;;;;;34.43;14.20;;;;;;;5.08;75.17;97980.36;2220210;80;21177;-62
2020/12/05 01:42:36;;;;;;;32.73;12.73;;;;;;;5.10;74.92;97984.56;2220347;80;21763;-61
2020/12/05 01:45:37;;;;;;;30.72;12.45;;;;;;;5.09;74.94;97984.17;2220762;80;21296;-61
2020/12/05 01:48:38;;;;;;;29.98;12.03;;;;;;;5.12;74.96;97974.08;2220762;80;21266;-61
2020/12/05 01:51:40;;;;;;;32.35;12.95;;;;;;;5.14;74.90;97973.09;2220318;80;21611;-62
2020/12/05 01:54:41;;;;;;;32.95;13.83;;;;;;;5.19;74.89;97972.38;2220369;80;21618;-62
2020/12/05 01:57:42;;;;;;;34.08;13.90;;;;;;;5.25;74.79;97970.38;2220171;80;21135;-61
2020/12/05 02:00:43;;;;;;;33.90;14.28;;;;;;;5.27;74.78;97983.69;2220532;80;21339;-62
2020/12/05 02:03:44;;;;;;;33.92;13.85;;;;;;;5.31;74.68;97972.64;2210850;80;21717;-62
2020/12/05 02:06:45;;;;;;;32.25;12.82;;;;;;;5.29;74.59;97975.80;2209761;81;21293;-61
2020/12/05 02:09:46;;;;;;;31.68;12.47;;;;;;;5.28;74.58;97965.02;2209600;81;21313;-62
2020/12/05 02:12:47;;;;;;;31.23;12.37;;;;;;;5.26;74.55;97980.70;2209750;81;21280;-62
2020/12/05 02:15:48;;;;;;;32.70;13.38;;;;;;;5.23;74.62;97978.27;2209583;81;21285;-62
2020/12/05 02:18:50;;;;;;;29.77;12.68;;;;;;;5.24;74.69;97964.79;2209958;81;21697;-62
2020/12/05 02:21:51;;;;;;;33.13;13.00;;;;;;;5.22;74.66;97971.38;2209940;81;21249;-62
2020/12/05 02:24:52;;;;;;;30.88;13.40;;;;;;;5.19;74.73;97972.38;2209606;81;21717;-62
2020/12/05 02:27:53;;;;;;;31.30;12.68;;;;;;;5.15;74.75;97974.75;2209536;81;21277;-61
2020/12/05 02:30:55;;;;;;;32.85;13.68;;;;;;;5.09;74.99;97962.55;2210049;81;21273;-62
2020/12/05 02:33:56;;;;;;;33.73;13.30;;;;;;;5.05;75.01;97961.03;2209607;81;21732;-62
2020/12/05 02:36:57;;;;;;;31.25;12.25;;;;;;;5.01;75.11;97965.09;2210090;81;21265;-62
2020/12/05 02:39:58;;;;;;;31.02;11.55;;;;;;;5.01;75.16;97972.03;2209998;81;21304;-62
2020/12/05 02:43:00;;;;;;;30.23;11.78;;;;;;;5.03;75.48;97971.51;2209957;81;21277;-62
2020/12/05 02:46:01;;;;;;;34.55;13.75;;;;;;;5.10;75.42;97963.77;2210580;81;21272;-62
2020/12/05 02:49:03;;;;;;;35.98;14.47;;;;;;;5.17;75.25;97972.92;2209786;81;21273;-62
2020/12/05 02:52:04;;;;;;;31.02;13.55;;;;;;;5.21;75.13;97963.19;2210175;81;21261;-62
2020/12/05 02:55:05;;;;;;;31.10;12.98;;;;;;;5.22;75.12;97959.67;2209766;81;21171;-62
2020/12/05 02:58:06;;;;;;;31.75;12.45;;;;;;;5.26;75.11;97965.09;2209928;81;21317;-62
2020/12/05 03:01:07;;;;;;;31.60;13.08;;;;;;;5.30;75.00;97964.45;2209776;81;21285;-62
2020/12/05 03:04:08;;;;;;;31.62;12.98;;;;;;;5.35;74.92;97961.16;2216390;80;21249;-62
2020/12/05 03:07:10;;;;;;;30.05;13.00;;;;;;;5.42;74.82;97966.89;2217036;80;21336;-62
2020/12/05 03:10:11;;;;;;;30.95;13.08;;;;;;;5.49;74.70;97971.66;2217379;80;21280;-62
2020/12/05 03:13:12;;;;;;;32.58;13.55;;;;;;;5.56;74.44;97969.58;2217222;80;21272;-62
2020/12/05 03:16:14;;;;;;;33.02;13.30;;;;;;;5.64;74.30;97977.78;2217195;80;21272;-62
2020/12/05 03:19:16;;;;;;;30.43;13.13;;;;;;;5.68;74.32;97977.17;2217405;80;21325;-62
2020/12/05 03:22:17;;;;;;;29.67;11.90;;;;;;;5.69;74.34;97980.16;2217075;80;21269;-62
2020/12/05 03:25:18;;;;;;;29.67;11.40;;;;;;;5.71;74.12;97984.81;2188526;80;21261;-62
2020/12/05 03:28:19;;;;;;;29.25;12.00;;;;;;;5.77;74.11;97978.43;2216946;80;21276;-62
2020/12/05 03:31:39;;;;;;;30.37;12.98;;;;;;;5.80;73.69;97980.38;2216932;80;21273;-62
2020/12/05 03:34:37;;;;;;;32.00;13.60;;;;;;;5.82;73.87;97982.90;2216532;80;21728;-62
2020/12/05 03:37:38;;;;;;;33.13;13.38;;;;;;;5.81;73.86;97991.66;2217364;80;21265;-62
2020/12/05 03:40:39;;;;;;;34.90;14.78;;;;;;;5.78;73.84;97984.02;2216865;80;21293;-62
2020/12/05 03:43:40;;;;;;;31.68;13.13;;;;;;;5.74;73.96;97984.63;2217189;80;21288;-62
2020/12/05 03:46:42;;;;;;;35.80;12.23;;;;;;;5.69;73.92;97980.16;2217695;80;21543;-62
2020/12/05 03:49:43;;;;;;;31.85;13.35;;;;;;;5.67;74.04;97984.59;2216932;80;21261;-62
2020/12/05 03:52:44;;;;;;;33.18;14.23;;;;;;;5.68;74.06;97983.68;2217171;80;21720;-62
2020/12/05 03:55:45;;;;;;;34.08;13.90;;;;;;;5.68;73.98;97979.78;2217166;80;21324;-62
2020/12/05 03:58:46;;;;;;;35.28;14.83;;;;;;;5.67;74.01;97978.09;2217269;80;21316;-62
2020/12/05 04:01:48;;;;;;;35.52;14.50;;;;;;;5.65;73.99;97987.28;2216916;80;21277;-62
2020/12/05 04:04:49;;;;;;;31.75;13.00;;;;;;;5.64;74.17;97988.66;2209722;81;21265;-62
2020/12/05 04:07:50;;;;;;;32.88;14.60;;;;;;;5.63;74.25;97990.88;2209702;81;21713;-61
2020/12/05 04:10:51;;;;;;;31.80;13.35;;;;;;;5.59;74.21;97984.16;2209664;81;21273;-62
2020/12/05 04:13:53;;;;;;;29.57;12.50;;;;;;;5.58;74.30;97983.33;2210107;81;21269;-61
2020/12/05 04:16:54;;;;;;;33.23;14.28;;;;;;;5.57;74.37;97986.02;2209804;81;21731;-61
2020/12/05 04:19:55;;;;;;;31.37;13.58;;;;;;;5.59;74.31;97986.77;2209989;81;21721;-62
2020/12/05 04:22:57;;;;;;;32.67;13.70;;;;;;;5.58;74.40;97991.14;2210215;81;21301;-61
2020/12/05 04:25:58;;;;;;;34.40;13.97;;;;;;;5.58;74.42;97995.52;2209974;81;21269;-61
2020/12/05 04:28:59;;;;;;;35.17;13.93;;;;;;;5.56;74.45;97987.79;2210225;81;21701;-61
2020/12/05 04:32:00;;;;;;;33.53;13.75;;;;;;;5.53;74.55;97986.19;2210134;81;21344;-62
2020/12/05 04:35:02;;;;;;;33.13;12.90;;;;;;;5.52;74.60;97989.70;2209772;81;21289;-62
2020/12/05 04:38:03;;;;;;;32.90;13.68;;;;;;;5.53;74.63;97991.39;2210148;81;21297;-62
2020/12/05 04:41:04;;;;;;;32.75;13.95;;;;;;;5.54;74.63;97996.95;2209797;81;21269;-62
2020/12/05 04:44:05;;;;;;;35.55;13.85;;;;;;;5.58;74.59;97986.41;2210160;81;21115;-62
2020/12/05 04:47:07;;;;;;;31.80;13.45;;;;;;;5.61;74.65;97988.84;2209771;81;21741;-62
2020/12/05 04:50:08;;;;;;;36.10;14.60;;;;;;;5.61;74.64;98006.58;2209772;81;21276;-62
2020/12/05 04:53:09;;;;;;;34.75;15.08;;;;;;;5.61;74.61;98000.07;2209670;81;21281;-62
2020/12/05 04:56:10;;;;;;;32.10;13.65;;;;;;;5.61;74.62;97997.47;2209822;81;21732;-62
2020/12/05 04:59:11;;;;;;;30.50;12.68;;;;;;;5.59;74.63;98011.03;2209639;81;21737;-61
2020/12/05 05:02:12;;;;;;;30.62;12.63;;;;;;;5.56;74.62;98013.80;2209811;80;21277;-61
2020/12/05 05:05:14;;;;;;;29.82;13.35;;;;;;;5.58;74.71;98012.42;2210195;81;21257;-62
2020/12/05 05:08:15;;;;;;;31.80;14.98;;;;;;;5.60;74.71;98008.79;2187782;81;21485;-62
2020/12/05 05:11:17;;;;;;;32.28;14.43;;;;;;;5.61;74.64;98011.78;2209790;81;21281;-62
2020/12/05 05:14:19;;;;;;;34.40;14.83;;;;;;;5.60;74.74;98016.59;2209758;81;21701;-62
2020/12/05 05:17:20;;;;;;;33.48;14.70;;;;;;;5.60;74.71;98013.16;2210147;81;21261;-62
2020/12/05 05:20:21;;;;;;;33.05;14.25;;;;;;;5.61;74.69;98026.56;2187630;81;21261;-62
2020/12/05 05:23:22;;;;;;;29.63;12.13;;;;;;;5.59;74.71;98026.64;2210036;81;21269;-62
2020/12/05 05:26:23;;;;;;;30.72;12.43;;;;;;;5.58;74.75;98026.73;2209889;81;21704;-62
2020/12/05 05:29:25;;;;;;;32.70;13.70;;;;;;;5.60;74.75;98025.70;2209717;81;21276;-62
2020/12/05 05:32:28;;;;;;;31.97;13.53;;;;;;;5.62;74.73;98024.34;2209896;81;21285;-62
2020/12/05 05:35:29;;;;;;;32.48;14.07;;;;;;;5.63;74.70;98033.81;2210109;81;21293;-62
2020/12/05 05:38:31;;;;;;;32.33;14.15;;;;;;;5.62;74.73;98030.85;2209699;81;21265;-62
2020/12/05 05:41:32;;;;;;;33.20;14.28;;;;;;;5.62;74.84;98039.95;2209685;81;21308;-62
2020/12/05 05:44:33;;;;;;;32.98;14.50;;;;;;;5.61;74.88;98035.67;2210163;81;21293;-61
2020/12/05 05:47:34;;;;;;;31.82;13.43;;;;;;;5.59;74.95;98034.45;2209625;81;21705;-62
2020/12/05 05:50:35;;;;;;;29.57;12.68;;;;;;;5.61;74.93;98036.97;2210045;81;21300;-62
2020/12/05 05:53:38;;;;;;;34.08;13.65;;;;;;;5.63;74.90;98037.71;2210133;81;21753;-62
2020/12/05 05:56:39;;;;;;;30.32;12.78;;;;;;;5.64;74.90;98040.70;2209845;81;21285;-62
2020/12/05 05:59:40;;;;;;;30.80;13.15;;;;;;;5.66;74.99;98037.54;2209895;81;21744;-62
2020/12/05 06:02:41;;;;;;;35.17;15.58;;;;;;;5.67;75.02;98032.25;2210769;80;21222;-62
2020/12/05 06:05:42;;;;;;;33.85;15.05;;;;;;;5.70;74.99;98036.46;2216955;80;21670;-62
2020/12/05 06:08:43;;;;;;;31.20;13.40;;;;;;;5.70;75.09;98042.97;2217219;80;21273;-62
2020/12/05 06:11:44;;;;;;;32.15;13.75;;;;;;;5.71;75.05;98031.17;2216807;80;21254;-61
2020/12/05 06:14:46;;;;;;;32.08;12.90;;;;;;;5.77;75.08;98033.08;2217066;80;21130;-62
2020/12/05 06:17:47;;;;;;;32.58;14.00;;;;;;;5.84;75.04;98035.73;2217072;80;21749;-61
2020/12/05 06:20:48;;;;;;;30.43;13.35;;;;;;;5.92;74.86;98041.80;2216947;80;21300;-61
2020/12/05 06:23:49;;;;;;;32.60;14.93;;;;;;;5.97;74.79;98047.61;2217392;80;21272;-62
2020/12/05 06:26:51;;;;;;;32.60;14.07;;;;;;;6.01;74.76;98053.89;2217257;80;21277;-62
2020/12/05 06:29:52;;;;;;;31.20;14.28;;;;;;;6.02;74.73;98048.21;2217069;80;21284;-61
2020/12/05 06:32:55;;;;;;;29.65;12.13;;;;;;;6.07;74.72;98050.12;2217381;80;21268;-62
2020/12/05 06:35:56;;;;;;;29.87;13.48;;;;;;;6.11;74.62;98049.03;2216992;80;21305;-62
2020/12/05 06:38:57;;;;;;;32.80;15.30;;;;;;;6.15;74.51;98049.24;2217006;80;21297;-61
2020/12/05 06:41:58;;;;;;;33.88;14.65;;;;;;;6.17;74.43;98057.80;2216973;80;21273;-62
2020/12/05 06:45:00;;;;;;;32.50;14.50;;;;;;;6.20;74.52;98056.31;2217359;80;21736;-62
2020/12/05 06:48:02;;;;;;;31.48;13.13;;;;;;;6.20;74.37;98074.55;2217226;80;21705;-62
2020/12/05 06:51:03;;;;;;;30.08;12.82;;;;;;;6.21;74.40;98074.94;2217619;80;21151;-62
2020/12/05 06:54:04;;;;;;;31.23;14.13;;;;;;;6.22;74.37;98073.16;2217479;80;21268;-62
2020/12/05 06:57:06;;;;;;;32.33;14.18;;;;;;;6.24;74.29;98069.55;2216928;80;21312;-61
2020/12/05 07:00:07;;;;;;;33.02;14.58;;;;;;;6.27;74.21;98065.11;2217167;80;21701;-61
2020/12/05 07:03:08;;;;;;;32.65;14.30;;;;;;;6.28;74.30;98062.42;2216870;80;21249;-61
2020/12/05 07:06:10;;;;;;;30.00;13.10;;;;;;;6.31;74.26;98064.02;2217228;80;21289;-62
2020/12/05 07:09:11;;;;;;;29.85;12.88;;;;;;;6.33;74.21;98060.86;2217303;80;21274;-62
2020/12/05 07:12:12;;;;;;;31.52;14.18;;;;;;;6.35;74.10;98058.99;2216961;80;21746;-62
2020/12/05 07:15:13;;;;;;;34.78;14.00;;;;;;;6.42;74.05;98070.75;2216940;80;21301;-62
2020/12/05 07:18:14;;;;;;;33.75;14.43;;;;;;;6.44;73.87;98062.84;2217039;80;21134;-62
2020/12/05 07:21:15;;;;;;;30.70;14.38;;;;;;;6.48;73.90;98079.55;2217014;80;21729;-62
2020/12/05 07:24:17;;;;;;;32.90;15.50;;;;;;;6.51;73.89;98079.36;2217201;80;21585;-62
2020/12/05 07:27:18;;;;;;;33.33;14.58;;;;;;;6.52;73.84;98090.17;2188449;80;21277;-62
2020/12/05 07:30:19;;;;;;;30.32;12.68;;;;;;;6.55;73.61;98085.23;2217370;80;21272;-62
2020/12/05 07:33:20;;;;;;;32.55;14.75;;;;;;;6.58;73.75;98083.30;2217045;80;21733;-62
2020/12/05 07:36:22;;;;;;;29.32;13.18;;;;;;;6.66;73.53;98090.67;2217086;80;21725;-62
2020/12/05 07:39:23;;;;;;;33.67;14.93;;;;;;;6.72;73.34;98102.08;2217372;80;21308;-62
2020/12/05 07:42:24;;;;;;;36.35;16.42;;;;;;;6.81;73.28;98113.75;2216917;80;21716;-62
2020/12/05 07:45:25;;;;;;;32.50;15.55;;;;;;;6.91;73.01;98108.82;2216941;80;21605;-61
2020/12/05 07:48:27;;;;;;;33.28;15.00;;;;;;;7.01;72.77;98110.44;2217285;80;21705;-62
2020/12/05 07:51:28;;;;;;;33.20;13.80;;;;;;;7.08;72.39;98108.71;2216982;80;21294;-61
2020/12/05 07:54:29;;;;;;;33.38;14.70;;;;;;;7.19;72.36;98121.11;2217431;80;21307;-62
2020/12/05 07:57:30;;;;;;;33.08;15.38;;;;;;;7.28;72.22;98106.23;2188599;80;21151;-62
2020/12/05 08:00:31;;;;;;;33.02;15.10;;;;;;;7.41;71.90;98123.31;2217048;80;21882;-62
2020/12/05 08:03:32;;;;;;;33.25;15.23;;;;;;;7.54;71.58;98126.48;2216833;80;21249;-62
2020/12/05 08:06:34;;;;;;;33.02;15.43;;;;;;;7.66;71.66;98117.06;2216934;80;21257;-62
2020/12/05 08:09:35;;;;;;;36.35;15.85;;;;;;;7.79;71.50;98117.55;2216982;80;21311;-62
2020/12/05 08:12:36;;;;;;;32.28;13.95;;;;;;;7.87;70.82;98119.67;2217395;80;21301;-62
2020/12/05 08:15:37;;;;;;;31.00;13.65;;;;;;;7.93;70.45;98118.02;2217263;80;21253;-62
2020/12/05 08:18:38;;;;;;;32.50;15.35;;;;;;;8.01;70.02;98113.62;2217244;80;21716;-62
2020/12/05 08:21:39;;;;;;;34.08;14.63;;;;;;;8.11;70.53;98123.86;2217255;80;21689;-62
2020/12/05 08:24:41;;;;;;;31.70;14.07;;;;;;;8.22;70.46;98129.73;2188366;80;21289;-62
2020/12/05 08:27:42;;;;;;;34.73;15.58;;;;;;;8.33;69.77;98126.44;2188396;80;21285;-62
2020/12/05 08:30:43;;;;;;;30.75;14.73;;;;;;;8.49;69.84;98135.03;2216820;80;21752;-62
2020/12/05 08:33:44;;;;;;;31.60;15.20;;;;;;;8.63;69.50;98126.32;2216871;80;21281;-62
2020/12/05 08:36:45;;;;;;;31.97;14.70;;;;;;;8.76;69.63;98134.66;2216949;80;21334;-62
2020/12/05 08:39:46;;;;;;;31.60;14.78;;;;;;;8.86;69.37;98129.69;2216864;80;21875;-62
2020/12/05 08:42:47;;;;;;;31.65;14.98;;;;;;;8.91;68.56;98138.91;2216996;80;21284;-62
2020/12/05 08:45:49;;;;;;;32.03;14.25;;;;;;;8.90;69.16;98140.32;2217096;80;21157;-62
2020/12/05 08:48:50;;;;;;;29.27;12.70;;;;;;;8.92;69.34;98147.58;2216961;80;21701;-62
2020/12/05 08:51:51;;;;;;;30.72;14.73;;;;;;;9.04;68.96;98148.55;2217197;80;21265;-62
2020/12/05 08:54:52;;;;;;;31.65;14.25;;;;;;;9.18;68.86;98147.20;2216772;80;21716;-63
2020/12/05 08:57:53;;;;;;;29.42;14.10;;;;;;;9.31;68.05;98138.90;2216926;80;21293;-62
2020/12/05 09:00:55;;;;;;;33.42;14.87;;;;;;;9.43;68.35;98143.77;2216938;80;21297;-62
2020/12/05 09:03:56;;;;;;;32.10;14.35;;;;;;;9.46;67.59;98132.27;2217195;80;21170;-62
2020/12/05 09:06:57;;;;;;;32.80;14.87;;;;;;;9.49;68.14;98140.73;2216947;80;21289;-62
2020/12/05 09:09:58;;;;;;;31.60;14.38;;;;;;;9.54;68.39;98141.27;2217122;80;21276;-62
2020/12/05 09:13:00;;;;;;;32.25;14.05;;;;;;;9.61;68.39;98148.25;2216817;80;21277;-62
2020/12/05 09:16:01;;;;;;;30.68;13.98;;;;;;;9.73;68.00;98154.91;2216940;80;21741;-62
2020/12/05 09:19:03;;;;;;;30.62;14.25;;;;;;;9.84;67.56;98159.77;2217384;80;21308;-62
2020/12/05 09:22:05;;;;;;;31.50;14.28;;;;;;;9.92;67.04;98167.58;2216892;80;21665;-62
2020/12/05 09:25:06;;;;;;;31.50;14.90;;;;;;;10.03;67.12;98167.68;2188391;80;21292;-62
2020/12/05 09:28:07;;;;;;;31.60;14.85;;;;;;;10.19;66.96;98162.20;2216838;80;21261;-62
2020/12/05 09:31:09;;;;;;;31.15;14.18;;;;;;;10.34;65.34;98166.41;2216911;80;21142;-62
2020/12/05 09:34:10;;;;;;;30.37;14.50;;;;;;;10.42;64.97;98163.72;2216912;80;21272;-62
2020/12/05 09:37:11;;;;;;;35.73;16.85;;;;;;;10.37;65.69;98170.58;2217596;80;21130;-62
2020/12/05 09:40:13;;;;;;;70.85;32.08;;;;;;;10.23;65.70;98178.91;2216857;80;21281;-62
2020/12/05 09:43:14;;;;;;;37.90;17.10;;;;;;;10.15;65.89;98167.29;2217670;80;21692;-62
2020/12/05 09:46:15;;;;;;;34.92;16.12;;;;;;;9.94;66.39;98165.67;2216778;80;21495;-62
2020/12/05 09:49:17;;;;;;;38.20;17.52;;;;;;;9.81;66.27;98163.06;2216884;80;21304;-63
2020/12/05 09:52:18;;;;;;;34.10;15.13;;;;;;;9.73;66.95;98164.91;2216962;80;21284;-63
2020/12/05 09:55:19;;;;;;;32.33;14.58;;;;;;;9.67;67.12;98155.69;2216917;80;21276;-62
2020/12/05 09:58:20;;;;;;;31.62;14.30;;;;;;;9.66;67.29;98155.79;2216861;80;21276;-62
2020/12/05 10:01:22;;;;;;;32.88;14.55;;;;;;;9.69;67.68;98159.50;2216661;80;21110;-62
2020/12/05 10:04:23;;;;;;;33.10;15.30;;;;;;;9.72;66.99;98164.53;2217865;80;21282;-62
2020/12/05 10:07:25;;;;;;;32.33;14.90;;;;;;;9.69;66.48;98163.44;2220506;80;21613;-62
2020/12/05 10:10:26;;;;;;;33.13;15.35;;;;;;;9.67;67.08;98158.78;2220229;80;21300;-62
2020/12/05 10:13:27;;;;;;;32.98;15.45;;;;;;;9.65;67.26;98162.78;2220532;80;21276;-62
2020/12/05 10:16:29;;;;;;;32.53;15.10;;;;;;;9.61;67.30;98177.05;2220889;80;21308;-62
2020/12/05 10:19:30;;;;;;;32.90;15.35;;;;;;;9.61;67.60;98177.51;2220132;80;21162;-62
2020/12/05 10:22:31;;;;;;;33.30;16.23;;;;;;;9.59;68.22;98185.47;2220323;80;21146;-62
2020/12/05 10:25:33;;;;;;;34.63;16.70;;;;;;;9.60;67.85;98181.91;2220457;80;21167;-62
2020/12/05 10:28:34;;;;;;;30.55;14.98;;;;;;;9.59;68.12;98180.23;2220450;80;21578;-62
2020/12/05 10:31:35;;;;;;;32.63;13.93;;;;;;;9.60;68.17;98177.16;2220169;80;21170;-62
2020/12/05 10:34:36;;;;;;;32.53;13.70;;;;;;;9.60;68.22;98168.00;2220327;80;21127;-62
2020/12/05 10:37:38;;;;;;;30.80;14.93;;;;;;;9.61;68.45;98173.13;2220866;80;21741;-63
2020/12/05 10:40:39;;;;;;;31.57;14.98;;;;;;;9.63;68.42;98171.71;2220561;80;21280;-63
2020/12/05 10:43:41;;;;;;;33.73;15.05;;;;;;;9.63;68.45;98167.30;2220609;80;21730;-62
2020/12/05 10:46:42;;;;;;;35.13;16.48;;;;;;;9.63;68.33;98165.16;2220194;80;21174;-62
2020/12/05 10:49:43;;;;;;;32.08;15.28;;;;;;;9.58;68.42;98169.38;2220318;80;21143;-62
2020/12/05 10:52:44;;;;;;;33.70;15.40;;;;;;;9.55;68.44;98164.36;2191731;80;21253;-62
2020/12/05 10:55:45;;;;;;;32.88;15.00;;;;;;;9.50;68.61;98162.05;2220702;80;21281;-62
2020/12/05 10:58:46;;;;;;;31.90;15.63;;;;;;;9.47;68.66;98169.29;2220239;80;21150;-62
2020/12/05 11:01:48;;;;;;;31.50;13.88;;;;;;;9.44;69.06;98152.45;2220397;80;21729;-63
2020/12/05 11:04:49;;;;;;;33.30;14.83;;;;;;;9.45;69.09;98160.69;2219101;80;21280;-62
2020/12/05 11:07:52;;;;;;;35.90;16.95;;;;;;;9.48;69.08;98161.78;2217346;80;21264;-62
2020/12/05 11:10:53;;;;;;;;;;;;;;;9.54;69.35;98166.14;2219678;80;21268;-63
2020/12/05 11:13:54;;;;;;;33.63;15.53;;;;;;;9.63;69.25;98162.55;2217076;80;20152;-62
2020/12/05 11:16:55;;;;;;;34.20;15.50;;;;;;;9.64;69.32;98168.98;2217042;80;21725;-63
2020/12/05 11:19:56;;;;;;;35.13;16.60;;;;;;;9.66;69.24;98168.88;2216866;80;21741;-63
2020/12/05 11:22:57;;;;;;;31.73;15.00;;;;;;;9.69;69.34;98177.35;2217447;80;21535;-63
2020/12/05 11:25:58;;;;;;;31.93;14.68;;;;;;;9.70;69.40;98184.27;2216906;80;21289;-62
2020/12/05 11:28:59;;;;;;;31.30;14.75;;;;;;;9.73;69.15;98187.64;2217283;80;21269;-62
2020/12/05 11:32:00;;;;;;;30.00;12.75;;;;;;;9.74;69.33;98194.54;2217060;80;21705;-63
2020/12/05 11:35:02;;;;;;;32.95;14.95;;;;;;;9.78;69.32;98201.25;2217199;80;21277;-62
2020/12/05 11:38:03;;;;;;;32.20;14.70;;;;;;;9.81;69.26;98190.11;2216829;80;21260;-62
2020/12/05 11:41:04;;;;;;;30.48;14.20;;;;;;;9.83;69.12;98190.83;2217427;80;21737;-62
2020/12/05 11:44:06;;;;;;;31.68;13.90;;;;;;;9.85;69.09;98195.48;2217048;80;21301;-62
2020/12/05 11:47:07;;;;;;;29.45;13.10;;;;;;;9.85;69.06;98200.72;2217310;80;21277;-62
2020/12/05 11:50:08;;;;;;;29.95;13.50;;;;;;;9.85;69.22;98209.06;2217005;80;21589;-62
2020/12/05 11:53:09;;;;;;;31.02;14.28;;;;;;;9.84;69.20;98203.45;2216887;80;21292;-62
2020/12/05 11:56:10;;;;;;;30.52;13.45;;;;;;;9.83;69.26;98210.48;2217021;80;21285;-62
2020/12/05 11:59:12;;;;;;;31.27;14.28;;;;;;;9.81;69.36;98208.89;2217260;80;21320;-62
2020/12/05 12:02:13;;;;;;;30.60;13.60;;;;;;;9.79;69.28;98205.08;2217014;80;21606;-62
2020/12/05 12:05:15;;;;;;;27.30;11.63;;;;;;;9.79;69.25;98204.24;2213981;80;21278;-62
2020/12/05 12:08:16;;;;;;;29.87;13.43;;;;;;;9.78;69.41;98204.70;2210220;81;21297;-62
2020/12/05 12:11:17;;;;;;;31.20;13.32;;;;;;;9.79;69.44;98206.38;2209954;81;21253;-62
2020/12/05 12:14:18;;;;;;;28.25;13.83;;;;;;;9.82;69.39;98202.24;2209819;81;21154;-62
2020/12/05 12:17:20;;;;;;;31.00;13.28;;;;;;;9.85;69.43;98193.34;2209713;81;21301;-63
2020/12/05 12:20:21;;;;;;;28.62;12.98;;;;;;;9.86;69.38;98197.65;2209991;81;21728;-63
2020/12/05 12:23:22;;;;;;;42.30;14.78;;;;;;;9.87;69.37;98196.23;2209843;81;21716;-63
2020/12/05 12:26:24;;;;;;;29.80;12.88;;;;;;;9.87;69.02;98193.61;2209840;81;21309;-63
2020/12/05 12:29:25;;;;;;;31.82;13.18;;;;;;;9.87;69.35;98192.30;2210158;81;21277;-62
2020/12/05 12:32:26;;;;;;;42.35;18.00;;;;;;;9.88;69.39;98198.37;2209802;81;21321;-63
2020/12/05 12:35:27;;;;;;;38.28;14.90;;;;;;;9.88;69.23;98187.44;2209963;81;21720;-63
2020/12/05 12:38:28;;;;;;;31.25;13.85;;;;;;;9.91;69.21;98191.61;2209858;81;21285;-62
2020/12/05 12:41:30;;;;;;;32.10;14.68;;;;;;;9.91;69.26;98191.61;2210197;81;21269;-63
2020/12/05 12:44:31;;;;;;;30.50;14.23;;;;;;;9.92;69.29;98199.02;2187608;81;21258;-63
2020/12/05 12:47:41;;;;;;;33.20;15.85;;;;;;;9.91;69.29;98211.73;2209942;81;21281;-63
2020/12/05 12:50:44;;;;;;;32.70;14.65;;;;;;;9.88;69.49;98220.63;2209703;80;21724;-63
2020/12/05 12:53:44;;;;;;;37.70;18.05;;;;;;;9.85;69.45;98216.91;2209522;81;21725;-63
2020/12/05 12:56:45;;;;;;;31.75;13.48;;;;;;;9.82;69.51;98217.95;2210128;81;21300;-63
2020/12/05 12:59:46;;;;;;;32.78;14.35;;;;;;;9.79;69.33;98223.89;2209737;81;21831;-63
2020/12/05 13:02:47;;;;;;;41.68;19.32;;;;;;;9.78;69.62;98234.81;2209901;81;21290;-63
2020/12/05 13:05:48;;;;;;;33.42;14.58;;;;;;;9.77;69.64;98230.99;2213122;80;21308;-63
2020/12/05 13:08:50;;;;;;;32.83;14.78;;;;;;;9.80;69.62;98240.80;2217281;80;21281;-63
2020/12/05 13:11:51;;;;;;;32.70;14.78;;;;;;;9.80;69.59;98248.66;2216840;80;21273;-63
2020/12/05 13:14:52;;;;;;;33.85;14.68;;;;;;;9.80;69.64;98254.39;2188378;80;21602;-63
2020/12/05 13:17:53;;;;;;;31.23;14.47;;;;;;;9.79;69.73;98255.31;2216842;80;21277;-63
2020/12/05 13:20:55;;;;;;;32.88;14.90;;;;;;;9.78;69.67;98267.55;2216988;80;21717;-63
2020/12/05 13:23:56;;;;;;;34.55;14.15;;;;;;;9.77;69.62;98276.83;2217256;80;21305;-63
2020/12/05 13:26:57;;;;;;;32.65;13.55;;;;;;;9.76;69.70;98274.69;2217316;80;21692;-63
2020/12/05 13:29:58;;;;;;;33.60;15.78;;;;;;;9.74;69.74;98280.52;2216747;80;21721;-63
2020/12/05 13:32:59;;;;;;;39.67;18.75;;;;;;;9.75;69.70;98287.41;2217178;80;21273;-63
2020/12/05 13:36:00;;;;;;;37.70;16.05;;;;;;;9.77;69.78;98301.70;2217334;80;21272;-63
2020/12/05 13:39:01;;;;;;;38.55;18.70;;;;;;;9.76;69.61;98303.50;2216857;80;21272;-63
2020/12/05 13:42:03;;;;;;;32.58;15.15;;;;;;;9.75;69.90;98306.22;2217082;80;21264;-63
2020/12/05 13:45:04;;;;;;;35.23;15.90;;;;;;;9.69;69.87;98304.36;2216827;80;21296;-63
2020/12/05 13:48:05;;;;;;;42.53;20.10;;;;;;;9.66;69.99;98309.80;2217063;80;21296;-62
2020/12/05 13:51:06;;;;;;;35.23;16.70;;;;;;;9.61;70.07;98311.90;2217167;80;21296;-63
2020/12/05 13:54:07;;;;;;;36.65;17.48;;;;;;;9.56;70.17;98312.66;2216898;80;21293;-63
2020/12/05 13:57:08;;;;;;;35.35;17.02;;;;;;;9.49;70.27;98310.89;2216765;80;21721;-62
2020/12/05 14:00:10;;;;;;;32.13;14.23;;;;;;;9.45;70.41;98317.74;2217299;80;21289;-62
2020/12/05 14:03:11;;;;;;;37.73;15.03;;;;;;;9.42;70.52;98317.95;2188314;80;21248;-63